sensor_id;sensor_type;location;lat;lon;timestamp;temperature;humidity
67820;DHT22;54618;52.018;5.576;2022-09-24T00:01:29;19.60;62.90
67820;DHT22;54618;52.018;5.576;2022-09-24T00:03:57;19.60;62.90
67820;DHT22;54618;52.018;5.576;2022-09-24T00:06:25;19.60;62.90
67820;DHT22;54618;52.018;5.576;2022-09-24T00:08:52;19.60;62.90
67820;DHT22;54618;52.018;5.576;2022-09-24T00:11:23;19.60;62.90
67820;DHT22;54618;52.018;5.576;2022-09-24T00:13:50;19.60;62.90
67820;DHT22;54618;52.018;5.576;2022-09-24T00:16:17;19.60;62.90
67820;DHT22;54618;52.018;5.576;2022-09-24T00:18:43;19.60;62.90
67820;DHT22;54618;52.018;5.576;2022-09-24T00:21:23;19.60;63.00
67820;DHT22;54618;52.018;5.576;2022-09-24T00:23:54;19.60;63.00
67820;DHT22;54618;52.018;5.576;2022-09-24T00:26:21;19.60;63.00
67820;DHT22;54618;52.018;5.576;2022-09-24T00:29:06;19.60;63.00
67820;DHT22;54618;52.018;5.576;2022-09-24T00:31:32;19.60;63.00
67820;DHT22;54618;52.018;5.576;2022-09-24T00:33:58;19.60;63.00
67820;DHT22;54618;52.018;5.576;2022-09-24T00:36:23;19.60;63.00
67820;DHT22;54618;52.018;5.576;2022-09-24T00:38:50;19.60;63.00
67820;DHT22;54618;52.018;5.576;2022-09-24T00:41:18;19.60;63.60
67820;DHT22;54618;52.018;5.576;2022-09-24T00:43:46;19.60;63.00
67820;DHT22;54618;52.018;5.576;2022-09-24T00:49:18;19.60;63.10
67820;DHT22;54618;52.018;5.576;2022-09-24T00:51:47;19.60;63.10
67820;DHT22;54618;52.018;5.576;2022-09-24T00:54:20;19.60;63.10
67820;DHT22;54618;52.018;5.576;2022-09-24T00:56:48;19.60;63.10
67820;DHT22;54618;52.018;5.576;2022-09-24T00:59:17;19.60;63.10
67820;DHT22;54618;52.018;5.576;2022-09-24T01:01:45;19.60;63.10
67820;DHT22;54618;52.018;5.576;2022-09-24T01:04:12;19.60;63.10
67820;DHT22;54618;52.018;5.576;2022-09-24T01:06:38;19.60;63.20
67820;DHT22;54618;52.018;5.576;2022-09-24T01:09:03;19.60;63.20
67820;DHT22;54618;52.018;5.576;2022-09-24T01:11:52;19.60;63.20
67820;DHT22;54618;52.018;5.576;2022-09-24T01:25:11;19.50;63.20
67820;DHT22;54618;52.018;5.576;2022-09-24T01:27:59;19.50;63.20
67820;DHT22;54618;52.018;5.576;2022-09-24T01:30:30;19.50;63.20
67820;DHT22;54618;52.018;5.576;2022-09-24T01:33:03;19.50;63.20
67820;DHT22;54618;52.018;5.576;2022-09-24T01:38:32;19.50;63.30
67820;DHT22;54618;52.018;5.576;2022-09-24T01:40:59;19.50;63.20
67820;DHT22;54618;52.018;5.576;2022-09-24T01:43:27;19.50;63.20
67820;DHT22;54618;52.018;5.576;2022-09-24T01:45:55;19.50;63.20
67820;DHT22;54618;52.018;5.576;2022-09-24T01:48:25;19.50;63.30
67820;DHT22;54618;52.018;5.576;2022-09-24T01:51:02;19.50;63.30
67820;DHT22;54618;52.018;5.576;2022-09-24T01:53:32;19.50;63.30
67820;DHT22;54618;52.018;5.576;2022-09-24T01:56:04;19.50;63.30
67820;DHT22;54618;52.018;5.576;2022-09-24T01:58:37;19.50;63.30
67820;DHT22;54618;52.018;5.576;2022-09-24T02:01:09;19.50;63.30
67820;DHT22;54618;52.018;5.576;2022-09-24T02:03:41;19.50;63.30
67820;DHT22;54618;52.018;5.576;2022-09-24T02:06:13;19.50;63.40
67820;DHT22;54618;52.018;5.576;2022-09-24T02:08:45;19.50;63.40
67820;DHT22;54618;52.018;5.576;2022-09-24T02:11:21;19.50;63.30
67820;DHT22;54618;52.018;5.576;2022-09-24T02:14:05;19.50;63.40
67820;DHT22;54618;52.018;5.576;2022-09-24T02:16:37;19.50;63.40
67820;DHT22;54618;52.018;5.576;2022-09-24T02:19:06;19.50;63.40
67820;DHT22;54618;52.018;5.576;2022-09-24T02:21:35;19.50;63.40
67820;DHT22;54618;52.018;5.576;2022-09-24T02:24:10;19.50;63.40
67820;DHT22;54618;52.018;5.576;2022-09-24T02:26:38;19.50;63.40
67820;DHT22;54618;52.018;5.576;2022-09-24T02:29:04;19.50;63.50
67820;DHT22;54618;52.018;5.576;2022-09-24T02:31:32;19.50;63.50
67820;DHT22;54618;52.018;5.576;2022-09-24T02:34:02;19.50;63.50
67820;DHT22;54618;52.018;5.576;2022-09-24T02:36:54;19.50;63.50
67820;DHT22;54618;52.018;5.576;2022-09-24T02:39:22;19.50;63.50
67820;DHT22;54618;52.018;5.576;2022-09-24T02:41:48;19.50;63.50
67820;DHT22;54618;52.018;5.576;2022-09-24T02:44:15;19.50;63.50
67820;DHT22;54618;52.018;5.576;2022-09-24T02:46:44;19.50;63.50
67820;DHT22;54618;52.018;5.576;2022-09-24T02:49:10;19.50;63.50
67820;DHT22;54618;52.018;5.576;2022-09-24T02:51:36;19.50;63.50
67820;DHT22;54618;52.018;5.576;2022-09-24T02:54:03;19.50;63.50
67820;DHT22;54618;52.018;5.576;2022-09-24T02:56:29;19.50;63.50
67820;DHT22;54618;52.018;5.576;2022-09-24T02:58:55;19.50;63.50
67820;DHT22;54618;52.018;5.576;2022-09-24T03:01:21;19.50;63.50
67820;DHT22;54618;52.018;5.576;2022-09-24T03:03:47;19.50;63.50
67820;DHT22;54618;52.018;5.576;2022-09-24T03:06:13;19.50;63.50
67820;DHT22;54618;52.018;5.576;2022-09-24T03:08:40;19.50;63.60
67820;DHT22;54618;52.018;5.576;2022-09-24T03:11:07;19.50;63.60
67820;DHT22;54618;52.018;5.576;2022-09-24T03:13:32;19.50;63.60
67820;DHT22;54618;52.018;5.576;2022-09-24T03:15:58;19.50;63.60
67820;DHT22;54618;52.018;5.576;2022-09-24T03:18:23;19.50;63.60
67820;DHT22;54618;52.018;5.576;2022-09-24T03:21:03;19.50;63.60
67820;DHT22;54618;52.018;5.576;2022-09-24T03:23:29;19.50;63.60
67820;DHT22;54618;52.018;5.576;2022-09-24T03:25:55;19.50;63.60
67820;DHT22;54618;52.018;5.576;2022-09-24T03:28:21;19.50;63.60
67820;DHT22;54618;52.018;5.576;2022-09-24T03:30:46;19.50;63.60
67820;DHT22;54618;52.018;5.576;2022-09-24T03:33:35;19.50;63.60
67820;DHT22;54618;52.018;5.576;2022-09-24T03:36:05;19.50;63.60
67820;DHT22;54618;52.018;5.576;2022-09-24T03:38:32;19.50;63.60
67820;DHT22;54618;52.018;5.576;2022-09-24T03:40:58;19.50;63.60
67820;DHT22;54618;52.018;5.576;2022-09-24T03:43:24;19.50;63.60
67820;DHT22;54618;52.018;5.576;2022-09-24T03:45:50;19.50;63.60
67820;DHT22;54618;52.018;5.576;2022-09-24T03:48:17;19.50;63.60
67820;DHT22;54618;52.018;5.576;2022-09-24T03:50:43;19.50;64.30
67820;DHT22;54618;52.018;5.576;2022-09-24T03:53:10;19.50;63.70
67820;DHT22;54618;52.018;5.576;2022-09-24T03:58:10;19.50;63.70
67820;DHT22;54618;52.018;5.576;2022-09-24T04:00:35;19.50;63.70
67820;DHT22;54618;52.018;5.576;2022-09-24T04:03:01;19.50;63.70
67820;DHT22;54618;52.018;5.576;2022-09-24T04:05:27;19.50;63.70
67820;DHT22;54618;52.018;5.576;2022-09-24T04:07:55;19.50;63.70
67820;DHT22;54618;52.018;5.576;2022-09-24T04:10:20;19.50;63.70
67820;DHT22;54618;52.018;5.576;2022-09-24T04:12:49;19.50;63.70
67820;DHT22;54618;52.018;5.576;2022-09-24T04:15:15;19.50;63.70
67820;DHT22;54618;52.018;5.576;2022-09-24T04:17:49;19.50;63.70
67820;DHT22;54618;52.018;5.576;2022-09-24T04:20:15;19.50;63.70
67820;DHT22;54618;52.018;5.576;2022-09-24T04:22:41;19.50;63.70
67820;DHT22;54618;52.018;5.576;2022-09-24T04:25:06;19.50;63.70
67820;DHT22;54618;52.018;5.576;2022-09-24T04:27:32;19.50;63.70
67820;DHT22;54618;52.018;5.576;2022-09-24T04:30:00;19.50;63.70
67820;DHT22;54618;52.018;5.576;2022-09-24T04:32:25;19.50;63.70
67820;DHT22;54618;52.018;5.576;2022-09-24T04:34:51;19.50;63.70
67820;DHT22;54618;52.018;5.576;2022-09-24T04:37:16;19.50;63.70
67820;DHT22;54618;52.018;5.576;2022-09-24T04:39:42;19.40;63.70
67820;DHT22;54618;52.018;5.576;2022-09-24T04:42:08;19.50;63.70
67820;DHT22;54618;52.018;5.576;2022-09-24T04:44:33;19.50;63.70
67820;DHT22;54618;52.018;5.576;2022-09-24T04:46:59;19.50;63.70
67820;DHT22;54618;52.018;5.576;2022-09-24T04:49:26;19.40;63.70
67820;DHT22;54618;52.018;5.576;2022-09-24T04:51:53;19.50;63.70
67820;DHT22;54618;52.018;5.576;2022-09-24T04:54:20;19.50;63.70
67820;DHT22;54618;52.018;5.576;2022-09-24T04:56:46;19.50;63.80
67820;DHT22;54618;52.018;5.576;2022-09-24T04:59:12;19.50;63.80
67820;DHT22;54618;52.018;5.576;2022-09-24T05:01:37;19.50;63.80
67820;DHT22;54618;52.018;5.576;2022-09-24T05:04:03;19.50;63.80
67820;DHT22;54618;52.018;5.576;2022-09-24T05:06:28;19.50;63.80
67820;DHT22;54618;52.018;5.576;2022-09-24T05:08:54;19.50;63.80
67820;DHT22;54618;52.018;5.576;2022-09-24T05:11:19;19.50;63.80
67820;DHT22;54618;52.018;5.576;2022-09-24T05:13:45;19.40;63.70
67820;DHT22;54618;52.018;5.576;2022-09-24T05:16:11;19.40;63.80
67820;DHT22;54618;52.018;5.576;2022-09-24T05:18:36;19.50;63.80
67820;DHT22;54618;52.018;5.576;2022-09-24T05:21:02;19.40;63.80
67820;DHT22;54618;52.018;5.576;2022-09-24T05:23:27;19.40;63.80
67820;DHT22;54618;52.018;5.576;2022-09-24T05:25:53;19.40;63.90
67820;DHT22;54618;52.018;5.576;2022-09-24T05:28:37;19.50;64.00
67820;DHT22;54618;52.018;5.576;2022-09-24T05:31:04;19.40;63.80
67820;DHT22;54618;52.018;5.576;2022-09-24T05:33:30;19.40;63.80
67820;DHT22;54618;52.018;5.576;2022-09-24T05:35:56;19.40;63.80
67820;DHT22;54618;52.018;5.576;2022-09-24T05:38:22;19.50;63.90
67820;DHT22;54618;52.018;5.576;2022-09-24T05:40:48;19.40;63.80
67820;DHT22;54618;52.018;5.576;2022-09-24T05:43:14;19.40;63.80
67820;DHT22;54618;52.018;5.576;2022-09-24T05:45:40;19.40;63.80
67820;DHT22;54618;52.018;5.576;2022-09-24T05:48:06;19.50;63.90
67820;DHT22;54618;52.018;5.576;2022-09-24T05:50:32;19.40;63.90
67820;DHT22;54618;52.018;5.576;2022-09-24T05:53:03;19.40;63.90
67820;DHT22;54618;52.018;5.576;2022-09-24T05:55:29;19.40;63.90
67820;DHT22;54618;52.018;5.576;2022-09-24T05:57:54;19.50;63.90
67820;DHT22;54618;52.018;5.576;2022-09-24T06:00:20;19.40;63.90
67820;DHT22;54618;52.018;5.576;2022-09-24T06:02:46;19.40;63.90
67820;DHT22;54618;52.018;5.576;2022-09-24T06:05:12;19.40;63.90
67820;DHT22;54618;52.018;5.576;2022-09-24T06:07:38;19.50;63.90
67820;DHT22;54618;52.018;5.576;2022-09-24T06:10:04;19.40;63.90
67820;DHT22;54618;52.018;5.576;2022-09-24T06:12:32;19.40;63.90
67820;DHT22;54618;52.018;5.576;2022-09-24T06:15:00;19.40;63.90
67820;DHT22;54618;52.018;5.576;2022-09-24T06:17:26;19.40;63.90
67820;DHT22;54618;52.018;5.576;2022-09-24T06:19:51;19.40;63.90
67820;DHT22;54618;52.018;5.576;2022-09-24T06:22:17;19.40;63.90
67820;DHT22;54618;52.018;5.576;2022-09-24T06:24:42;19.40;64.00
67820;DHT22;54618;52.018;5.576;2022-09-24T06:27:08;19.40;63.90
67820;DHT22;54618;52.018;5.576;2022-09-24T06:29:33;19.40;63.90
67820;DHT22;54618;52.018;5.576;2022-09-24T06:31:59;19.40;64.00
67820;DHT22;54618;52.018;5.576;2022-09-24T06:34:26;19.40;64.00
67820;DHT22;54618;52.018;5.576;2022-09-24T06:36:55;19.40;63.90
67820;DHT22;54618;52.018;5.576;2022-09-24T06:39:22;19.40;64.00
67820;DHT22;54618;52.018;5.576;2022-09-24T06:41:48;19.40;64.00
67820;DHT22;54618;52.018;5.576;2022-09-24T06:44:16;19.40;64.00
67820;DHT22;54618;52.018;5.576;2022-09-24T06:46:42;19.40;64.00
67820;DHT22;54618;52.018;5.576;2022-09-24T06:49:07;19.40;64.00
67820;DHT22;54618;52.018;5.576;2022-09-24T06:51:33;19.40;64.00
67820;DHT22;54618;52.018;5.576;2022-09-24T06:53:58;19.40;64.00
67820;DHT22;54618;52.018;5.576;2022-09-24T06:56:24;19.40;64.00
67820;DHT22;54618;52.018;5.576;2022-09-24T06:58:50;19.40;64.00
67820;DHT22;54618;52.018;5.576;2022-09-24T07:01:16;19.40;64.00
67820;DHT22;54618;52.018;5.576;2022-09-24T07:03:42;19.40;64.00
67820;DHT22;54618;52.018;5.576;2022-09-24T07:06:07;19.40;64.00
67820;DHT22;54618;52.018;5.576;2022-09-24T07:08:33;19.40;64.00
67820;DHT22;54618;52.018;5.576;2022-09-24T07:10:59;19.40;64.00
67820;DHT22;54618;52.018;5.576;2022-09-24T07:13:25;19.40;64.10
67820;DHT22;54618;52.018;5.576;2022-09-24T07:15:51;19.40;64.00
67820;DHT22;54618;52.018;5.576;2022-09-24T07:18:18;19.40;64.10
67820;DHT22;54618;52.018;5.576;2022-09-24T07:20:49;19.40;64.10
67820;DHT22;54618;52.018;5.576;2022-09-24T07:23:15;19.40;64.10
67820;DHT22;54618;52.018;5.576;2022-09-24T07:25:42;19.40;64.10
67820;DHT22;54618;52.018;5.576;2022-09-24T07:28:11;19.40;64.10
67820;DHT22;54618;52.018;5.576;2022-09-24T07:30:37;19.40;64.10
67820;DHT22;54618;52.018;5.576;2022-09-24T07:33:03;19.40;64.10
67820;DHT22;54618;52.018;5.576;2022-09-24T07:35:29;19.40;64.10
67820;DHT22;54618;52.018;5.576;2022-09-24T07:37:57;19.40;64.10
67820;DHT22;54618;52.018;5.576;2022-09-24T07:40:23;19.40;64.10
67820;DHT22;54618;52.018;5.576;2022-09-24T07:42:48;19.40;64.10
67820;DHT22;54618;52.018;5.576;2022-09-24T07:45:14;19.40;64.10
67820;DHT22;54618;52.018;5.576;2022-09-24T07:47:41;19.40;64.10
67820;DHT22;54618;52.018;5.576;2022-09-24T07:50:07;19.40;64.10
67820;DHT22;54618;52.018;5.576;2022-09-24T07:52:33;19.40;64.10
67820;DHT22;54618;52.018;5.576;2022-09-24T07:54:58;19.40;64.10
67820;DHT22;54618;52.018;5.576;2022-09-24T07:57:24;19.40;64.20
67820;DHT22;54618;52.018;5.576;2022-09-24T07:59:51;19.40;64.20
67820;DHT22;54618;52.018;5.576;2022-09-24T08:02:17;19.40;64.20
67820;DHT22;54618;52.018;5.576;2022-09-24T08:04:44;19.40;64.10
67820;DHT22;54618;52.018;5.576;2022-09-24T08:07:13;19.40;64.20
67820;DHT22;54618;52.018;5.576;2022-09-24T08:09:39;19.40;64.20
67820;DHT22;54618;52.018;5.576;2022-09-24T08:12:06;19.40;64.20
67820;DHT22;54618;52.018;5.576;2022-09-24T08:14:32;19.40;64.20
67820;DHT22;54618;52.018;5.576;2022-09-24T08:16:57;19.40;64.20
67820;DHT22;54618;52.018;5.576;2022-09-24T08:19:23;19.40;64.20
67820;DHT22;54618;52.018;5.576;2022-09-24T08:21:48;19.40;64.20
67820;DHT22;54618;52.018;5.576;2022-09-24T08:24:15;19.40;64.20
67820;DHT22;54618;52.018;5.576;2022-09-24T08:26:41;19.40;64.20
67820;DHT22;54618;52.018;5.576;2022-09-24T08:29:07;19.40;64.20
67820;DHT22;54618;52.018;5.576;2022-09-24T08:31:32;19.40;64.20
67820;DHT22;54618;52.018;5.576;2022-09-24T08:33:59;19.50;64.30
67820;DHT22;54618;52.018;5.576;2022-09-24T08:36:25;19.40;64.20
67820;DHT22;54618;52.018;5.576;2022-09-24T08:38:55;19.40;64.20
67820;DHT22;54618;52.018;5.576;2022-09-24T08:41:50;19.40;64.20
67820;DHT22;54618;52.018;5.576;2022-09-24T08:47:10;19.40;64.20
67820;DHT22;54618;52.018;5.576;2022-09-24T08:50:34;19.40;64.30
67820;DHT22;54618;52.018;5.576;2022-09-24T08:55:17;19.40;64.30
67820;DHT22;54618;52.018;5.576;2022-09-24T08:57:57;19.40;64.30
67820;DHT22;54618;52.018;5.576;2022-09-24T09:00:26;19.40;64.30
67820;DHT22;54618;52.018;5.576;2022-09-24T09:02:58;19.40;64.20
67820;DHT22;54618;52.018;5.576;2022-09-24T09:08:22;19.40;64.40
67820;DHT22;54618;52.018;5.576;2022-09-24T09:10:57;19.40;64.30
67820;DHT22;54618;52.018;5.576;2022-09-24T09:13:31;19.40;64.90
67820;DHT22;54618;52.018;5.576;2022-09-24T09:16:09;19.40;64.30
67820;DHT22;54618;52.018;5.576;2022-09-24T09:18:39;19.40;64.30
67820;DHT22;54618;52.018;5.576;2022-09-24T09:21:33;19.40;64.30
67820;DHT22;54618;52.018;5.576;2022-09-24T09:24:02;19.40;64.30
67820;DHT22;54618;52.018;5.576;2022-09-24T09:26:28;19.40;64.20
67820;DHT22;54618;52.018;5.576;2022-09-24T09:28:58;19.40;64.20
67820;DHT22;54618;52.018;5.576;2022-09-24T09:34:43;19.50;64.40
67820;DHT22;54618;52.018;5.576;2022-09-24T09:37:13;19.40;64.30
67820;DHT22;54618;52.018;5.576;2022-09-24T09:39:52;19.40;64.30
67820;DHT22;54618;52.018;5.576;2022-09-24T09:42:34;19.40;64.30
67820;DHT22;54618;52.018;5.576;2022-09-24T09:45:45;19.40;64.30
67820;DHT22;54618;52.018;5.576;2022-09-24T09:47:55;19.50;64.30
67820;DHT22;54618;52.018;5.576;2022-09-24T09:50:38;19.40;64.30
67820;DHT22;54618;52.018;5.576;2022-09-24T09:53:16;19.40;64.40
67820;DHT22;54618;52.018;5.576;2022-09-24T09:55:42;19.40;64.30
67820;DHT22;54618;52.018;5.576;2022-09-24T10:00:40;19.40;64.30
67820;DHT22;54618;52.018;5.576;2022-09-24T10:03:19;19.40;64.40
67820;DHT22;54618;52.018;5.576;2022-09-24T10:05:55;19.40;64.40
67820;DHT22;54618;52.018;5.576;2022-09-24T10:08:22;19.40;64.40
67820;DHT22;54618;52.018;5.576;2022-09-24T10:10:53;19.40;64.40
67820;DHT22;54618;52.018;5.576;2022-09-24T10:13:19;19.40;64.40
67820;DHT22;54618;52.018;5.576;2022-09-24T10:15:50;19.40;64.40
67820;DHT22;54618;52.018;5.576;2022-09-24T10:18:23;19.40;64.40
67820;DHT22;54618;52.018;5.576;2022-09-24T10:20:52;19.40;64.40
67820;DHT22;54618;52.018;5.576;2022-09-24T10:23:20;19.40;64.50
67820;DHT22;54618;52.018;5.576;2022-09-24T10:26:00;19.40;64.50
67820;DHT22;54618;52.018;5.576;2022-09-24T10:28:26;19.40;64.50
67820;DHT22;54618;52.018;5.576;2022-09-24T10:31:27;19.40;64.50
67820;DHT22;54618;52.018;5.576;2022-09-24T10:33:55;19.40;64.50
67820;DHT22;54618;52.018;5.576;2022-09-24T10:36:23;19.40;64.50
67820;DHT22;54618;52.018;5.576;2022-09-24T10:39:07;19.40;64.50
67820;DHT22;54618;52.018;5.576;2022-09-24T10:41:34;19.30;64.50
67820;DHT22;54618;52.018;5.576;2022-09-24T10:44:08;19.30;64.50
67820;DHT22;54618;52.018;5.576;2022-09-24T10:49:22;19.30;64.60
67820;DHT22;54618;52.018;5.576;2022-09-24T10:54:51;19.30;64.70
67820;DHT22;54618;52.018;5.576;2022-09-24T10:57:26;19.30;64.60
67820;DHT22;54618;52.018;5.576;2022-09-24T11:00:22;19.40;64.70
67820;DHT22;54618;52.018;5.576;2022-09-24T11:06:01;19.40;64.70
67820;DHT22;54618;52.018;5.576;2022-09-24T11:09:10;19.40;64.70
67820;DHT22;54618;52.018;5.576;2022-09-24T11:12:42;19.40;64.70
67820;DHT22;54618;52.018;5.576;2022-09-24T11:15:06;19.40;64.70
67820;DHT22;54618;52.018;5.576;2022-09-24T11:20:29;19.30;65.60
67820;DHT22;54618;52.018;5.576;2022-09-24T11:23:35;19.40;66.10
67820;DHT22;54618;52.018;5.576;2022-09-24T11:26:24;19.40;66.50
67820;DHT22;54618;52.018;5.576;2022-09-24T11:31:40;19.40;66.50
67820;DHT22;54618;52.018;5.576;2022-09-24T11:42:46;19.50;66.30
67820;DHT22;54618;52.018;5.576;2022-09-24T11:45:31;19.50;66.70
67820;DHT22;54618;52.018;5.576;2022-09-24T11:48:08;19.50;66.40
67820;DHT22;54618;52.018;5.576;2022-09-24T11:53:30;19.50;67.00
67820;DHT22;54618;52.018;5.576;2022-09-24T11:56:01;19.50;66.30
67820;DHT22;54618;52.018;5.576;2022-09-24T11:58:40;19.50;66.30
67820;DHT22;54618;52.018;5.576;2022-09-24T12:01:22;19.50;66.30
67820;DHT22;54618;52.018;5.576;2022-09-24T12:04:09;19.60;66.30
67820;DHT22;54618;52.018;5.576;2022-09-24T12:06:38;19.50;66.50
67820;DHT22;54618;52.018;5.576;2022-09-24T12:09:18;19.60;66.30
67820;DHT22;54618;52.018;5.576;2022-09-24T12:11:58;19.50;66.40
67820;DHT22;54618;52.018;5.576;2022-09-24T12:14:42;19.60;66.40
67820;DHT22;54618;52.018;5.576;2022-09-24T12:17:22;19.60;66.40
67820;DHT22;54618;52.018;5.576;2022-09-24T12:19:58;19.60;66.40
67820;DHT22;54618;52.018;5.576;2022-09-24T12:22:25;19.60;66.40
67820;DHT22;54618;52.018;5.576;2022-09-24T12:24:56;19.60;66.40
67820;DHT22;54618;52.018;5.576;2022-09-24T12:27:34;19.60;66.40
67820;DHT22;54618;52.018;5.576;2022-09-24T12:30:33;19.60;66.40
67820;DHT22;54618;52.018;5.576;2022-09-24T12:33:45;19.60;66.60
67820;DHT22;54618;52.018;5.576;2022-09-24T12:39:19;19.60;66.50
67820;DHT22;54618;52.018;5.576;2022-09-24T12:41:51;19.60;66.50
67820;DHT22;54618;52.018;5.576;2022-09-24T12:44:46;19.50;66.40
67820;DHT22;54618;52.018;5.576;2022-09-24T12:47:25;19.60;66.50
67820;DHT22;54618;52.018;5.576;2022-09-24T12:50:01;19.60;66.60
67820;DHT22;54618;52.018;5.576;2022-09-24T12:52:34;19.50;66.60
67820;DHT22;54618;52.018;5.576;2022-09-24T12:55:02;19.60;66.60
67820;DHT22;54618;52.018;5.576;2022-09-24T12:57:34;19.60;66.60
67820;DHT22;54618;52.018;5.576;2022-09-24T13:00:31;19.60;66.70
67820;DHT22;54618;52.018;5.576;2022-09-24T13:02:50;19.60;66.70
67820;DHT22;54618;52.018;5.576;2022-09-24T13:10:58;19.60;66.80
67820;DHT22;54618;52.018;5.576;2022-09-24T13:13:34;19.60;66.70
67820;DHT22;54618;52.018;5.576;2022-09-24T13:16:20;19.60;66.60
67820;DHT22;54618;52.018;5.576;2022-09-24T13:18:58;19.60;67.30
67820;DHT22;54618;52.018;5.576;2022-09-24T13:21:26;19.60;66.70
67820;DHT22;54618;52.018;5.576;2022-09-24T13:23:52;19.60;66.60
67820;DHT22;54618;52.018;5.576;2022-09-24T13:26:44;19.60;66.60
67820;DHT22;54618;52.018;5.576;2022-09-24T13:29:24;19.60;66.70
67820;DHT22;54618;52.018;5.576;2022-09-24T13:31:55;19.60;66.70
67820;DHT22;54618;52.018;5.576;2022-09-24T13:34:26;19.60;66.60
67820;DHT22;54618;52.018;5.576;2022-09-24T13:42:38;19.60;66.70
67820;DHT22;54618;52.018;5.576;2022-09-24T13:45:14;19.60;66.70
67820;DHT22;54618;52.018;5.576;2022-09-24T13:47:57;19.60;66.70
67820;DHT22;54618;52.018;5.576;2022-09-24T13:50:29;19.60;66.80
67820;DHT22;54618;52.018;5.576;2022-09-24T13:55:38;19.60;66.80
67820;DHT22;54618;52.018;5.576;2022-09-24T13:58:04;19.60;66.90
67820;DHT22;54618;52.018;5.576;2022-09-24T14:00:30;19.60;66.90
67820;DHT22;54618;52.018;5.576;2022-09-24T14:03:02;19.50;66.80
67820;DHT22;54618;52.018;5.576;2022-09-24T14:05:33;19.50;66.80
67820;DHT22;54618;52.018;5.576;2022-09-24T14:08:20;19.50;66.80
67820;DHT22;54618;52.018;5.576;2022-09-24T14:10:47;19.50;67.50
67820;DHT22;54618;52.018;5.576;2022-09-24T14:13:20;19.50;66.90
67820;DHT22;54618;52.018;5.576;2022-09-24T14:15:53;19.50;66.90
67820;DHT22;54618;52.018;5.576;2022-09-24T14:18:20;19.50;66.90
67820;DHT22;54618;52.018;5.576;2022-09-24T14:20:55;19.60;67.00
67820;DHT22;54618;52.018;5.576;2022-09-24T14:23:23;19.50;66.90
67820;DHT22;54618;52.018;5.576;2022-09-24T14:25:51;19.50;67.00
67820;DHT22;54618;52.018;5.576;2022-09-24T14:28:18;19.50;67.30
67820;DHT22;54618;52.018;5.576;2022-09-24T14:30:51;19.50;67.00
67820;DHT22;54618;52.018;5.576;2022-09-24T14:33:20;19.50;67.10
67820;DHT22;54618;52.018;5.576;2022-09-24T14:35:50;19.50;67.00
67820;DHT22;54618;52.018;5.576;2022-09-24T14:38:24;19.50;67.10
67820;DHT22;54618;52.018;5.576;2022-09-24T14:40:58;19.50;67.10
67820;DHT22;54618;52.018;5.576;2022-09-24T14:48:37;19.50;67.30
67820;DHT22;54618;52.018;5.576;2022-09-24T14:51:04;19.50;67.10
67820;DHT22;54618;52.018;5.576;2022-09-24T14:53:34;19.50;67.10
67820;DHT22;54618;52.018;5.576;2022-09-24T14:56:45;19.50;67.80
67820;DHT22;54618;52.018;5.576;2022-09-24T14:58:46;19.50;67.30
67820;DHT22;54618;52.018;5.576;2022-09-24T15:01:15;19.50;67.10
67820;DHT22;54618;52.018;5.576;2022-09-24T15:03:55;19.50;67.20
67820;DHT22;54618;52.018;5.576;2022-09-24T15:06:35;19.50;67.20
67820;DHT22;54618;52.018;5.576;2022-09-24T15:11:34;19.50;67.20
67820;DHT22;54618;52.018;5.576;2022-09-24T15:14:18;19.50;67.20
67820;DHT22;54618;52.018;5.576;2022-09-24T15:16:49;19.50;67.20
67820;DHT22;54618;52.018;5.576;2022-09-24T15:19:19;19.50;67.20
67820;DHT22;54618;52.018;5.576;2022-09-24T15:21:50;19.50;67.20
67820;DHT22;54618;52.018;5.576;2022-09-24T15:24:18;19.50;67.30
67820;DHT22;54618;52.018;5.576;2022-09-24T15:27:05;19.50;67.30
67820;DHT22;54618;52.018;5.576;2022-09-24T15:29:31;19.50;67.30
67820;DHT22;54618;52.018;5.576;2022-09-24T15:31:57;19.50;67.30
67820;DHT22;54618;52.018;5.576;2022-09-24T15:34:24;19.50;67.30
67820;DHT22;54618;52.018;5.576;2022-09-24T15:36:53;19.50;67.30
67820;DHT22;54618;52.018;5.576;2022-09-24T15:39:20;19.50;67.30
67820;DHT22;54618;52.018;5.576;2022-09-24T15:41:46;19.50;67.30
67820;DHT22;54618;52.018;5.576;2022-09-24T15:44:21;19.50;67.30
67820;DHT22;54618;52.018;5.576;2022-09-24T15:46:49;19.50;67.30
67820;DHT22;54618;52.018;5.576;2022-09-24T15:49:19;19.50;67.30
67820;DHT22;54618;52.018;5.576;2022-09-24T15:51:51;19.50;67.30
67820;DHT22;54618;52.018;5.576;2022-09-24T15:54:18;19.50;67.30
67820;DHT22;54618;52.018;5.576;2022-09-24T15:56:44;19.50;67.30
67820;DHT22;54618;52.018;5.576;2022-09-24T15:59:14;19.50;67.30
67820;DHT22;54618;52.018;5.576;2022-09-24T16:01:40;19.50;67.30
67820;DHT22;54618;52.018;5.576;2022-09-24T16:04:08;19.50;67.30
67820;DHT22;54618;52.018;5.576;2022-09-24T16:06:35;19.50;67.30
67820;DHT22;54618;52.018;5.576;2022-09-24T16:09:01;19.50;67.30
67820;DHT22;54618;52.018;5.576;2022-09-24T16:11:26;19.50;67.30
67820;DHT22;54618;52.018;5.576;2022-09-24T16:13:52;19.50;67.30
67820;DHT22;54618;52.018;5.576;2022-09-24T16:16:17;19.50;67.30
67820;DHT22;54618;52.018;5.576;2022-09-24T16:18:43;19.50;67.30
67820;DHT22;54618;52.018;5.576;2022-09-24T16:21:08;19.50;67.30
67820;DHT22;54618;52.018;5.576;2022-09-24T16:23:34;19.50;67.30
67820;DHT22;54618;52.018;5.576;2022-09-24T16:26:00;19.50;67.30
67820;DHT22;54618;52.018;5.576;2022-09-24T16:28:26;19.50;67.30
67820;DHT22;54618;52.018;5.576;2022-09-24T16:30:52;19.50;67.80
67820;DHT22;54618;52.018;5.576;2022-09-24T16:33:19;19.50;67.40
67820;DHT22;54618;52.018;5.576;2022-09-24T16:35:45;19.50;67.40
67820;DHT22;54618;52.018;5.576;2022-09-24T16:38:11;19.50;67.40
67820;DHT22;54618;52.018;5.576;2022-09-24T16:40:37;19.50;67.40
67820;DHT22;54618;52.018;5.576;2022-09-24T16:43:03;19.50;67.40
67820;DHT22;54618;52.018;5.576;2022-09-24T16:45:30;19.50;67.40
67820;DHT22;54618;52.018;5.576;2022-09-24T16:47:56;19.40;67.40
67820;DHT22;54618;52.018;5.576;2022-09-24T16:50:22;19.50;67.40
67820;DHT22;54618;52.018;5.576;2022-09-24T16:52:50;19.50;67.40
67820;DHT22;54618;52.018;5.576;2022-09-24T16:55:19;19.50;67.40
67820;DHT22;54618;52.018;5.576;2022-09-24T16:57:44;19.50;67.40
67820;DHT22;54618;52.018;5.576;2022-09-24T17:00:11;19.50;67.50
67820;DHT22;54618;52.018;5.576;2022-09-24T17:02:36;19.50;67.50
67820;DHT22;54618;52.018;5.576;2022-09-24T17:05:02;19.50;67.40
67820;DHT22;54618;52.018;5.576;2022-09-24T17:07:29;19.50;67.50
67820;DHT22;54618;52.018;5.576;2022-09-24T17:09:56;19.50;67.50
67820;DHT22;54618;52.018;5.576;2022-09-24T17:12:49;19.50;67.40
67820;DHT22;54618;52.018;5.576;2022-09-24T17:15:17;19.50;67.50